• Join FlightAware (Why Join?)
  • Login
  • US Flag 
01:49AM EDT


 

Airport Tracker/Info


-or-


 

Live Flight TrackerFlight Track Log ✈ CTL16 ✈ 08-Apr-2013 ✈ KHAO - KBKL

Flight Track Log - Related Links

Times and Time Zones

All times are in EDT time to prevent confusion due to time zone crossing. See the CTL16 flight status page for this flight to view local times or setup timezone preferences in your user account.

Time Position Orientation Groundspeed Altitude Reporting Facility
EDT Latitude Longitude Course Direction KTS MPH feet Rate Location/Type
08:32PM 39.3833 -84.4500 32° Northeast 181 208 1,800  Level Cincinnati TRACON
08:33PM 39.4189 -84.4214 32° Northeast 183 211 2,100 360 Climbing Indianapolis Center
08:34PM 39.4442 -84.3928 41° Northeast 188 216 2,400 480 Climbing Indianapolis Center
08:35PM 39.4917 -84.3256 48° Northeast 194 223 3,100 480 Climbing Indianapolis Center
08:36PM 39.5214 -84.2786 51° Northeast 193 222 3,500 360 Climbing Indianapolis Center
08:37PM 39.5572 -84.2242 50° Northeast 194 223 3,800 360 Climbing Indianapolis Center
08:38PM 39.5969 -84.1733 45° Northeast 197 227 4,300 360 Climbing Indianapolis Center
08:39PM 39.6367 -84.1239 44° Northeast 196 226 4,600 300 Climbing Indianapolis Center
08:40PM 39.6739 -84.0728 47° Northeast 196 226 5,000 600 Climbing Indianapolis Center
08:41PM 39.7150 -84.0192 45° Northeast 184 212 5,900 900 Climbing Indianapolis Center
08:42PM 39.7428 -83.9847 44° Northeast 152 175 6,900 540 Climbing Indianapolis Center
08:43PM 39.7753 -83.9428 45° Northeast 158 182 7,000 60 Climbing Indianapolis Center
08:44PM 39.8169 -83.8911 44° Northeast 199 229 7,100  Climbing Indianapolis Center
08:45PM 39.8514 -83.8458 45° Northeast 189 217 7,000  Descending Indianapolis Center
08:46PM 39.8889 -83.7936 47° Northeast 194 223 7,100  Climbing Indianapolis Center
08:47PM 39.9333 -83.7372 44° Northeast 194 223 7,000 -60 Descending Indianapolis Center
08:48PM 39.9728 -83.6850 45° Northeast 196 226 7,000  Level Indianapolis Center
08:49PM 40.0097 -83.6381 44° Northeast 193 222 7,000  Level Indianapolis Center
08:50PM 40.0522 -83.5803 46° Northeast 197 227 7,100  Climbing Indianapolis Center
08:51PM 40.0908 -83.5283 46° Northeast 197 227 7,000  Descending Indianapolis Center
08:52PM 40.1306 -83.4756 45° Northeast 199 229 7,100  Climbing Indianapolis Center
08:53PM 40.1692 -83.4242 45° Northeast 198 228 7,000 -60 Descending Indianapolis Center
08:54PM 40.2094 -83.3742 43° Northeast 198 228 7,000  Level Indianapolis Center
08:55PM 40.2550 -83.3161 44° Northeast 199 229 7,000  Level Indianapolis Center
08:56PM 40.2944 -83.2633 46° Northeast 200 230 7,000  Level Indianapolis Center
08:57PM 40.3283 -83.2194 45° Northeast 197 227 7,000  Level Indianapolis Center
08:58PM 40.3681 -83.1686 44° Northeast 197 227 7,000  Level Indianapolis Center
08:59PM 40.4081 -83.1192 43° Northeast 196 226 7,000  Level Indianapolis Center
09:00PM 40.4486 -83.0694 43° Northeast 197 227 7,000  Level Indianapolis Center
09:01PM 40.4883 -83.0175 45° Northeast 199 229 7,000  Level Indianapolis Center
09:02PM 40.5322 -82.9611 44° Northeast 198 228 7,000 -540 Level Indianapolis Center
09:03PM 40.5756 -82.9039 45° Northeast 214 246 6,000 -780 Descending Indianapolis Center
09:04PM 40.6194 -82.8467 45° Northeast 219 252 5,500 -540 Descending Indianapolis Center
09:05PM 40.6619 -82.7906 45° Northeast 217 250 5,000 -300 Descending Indianapolis Center
09:06PM 40.7047 -82.7381 43° Northeast 210 242 5,000 -120 Level Indianapolis Center
09:07PM 40.7142 -82.7225 51° Northeast 207 238 4,900 -120 Descending Cleveland Center
09:07PM 40.7417 -82.6933 39° Northeast 202 232 4,900  Level Cleveland Center
09:08PM 40.7781 -82.6450 45° Northeast 201 231 4,900  Level Cleveland Center
09:09PM 40.8186 -82.5914 45° Northeast 201 231 4,900  Level Cleveland Center
09:10PM 40.8656 -82.5269 46° Northeast 203 234 4,900  Level Cleveland Center
09:11PM 40.9019 -82.4786 45° Northeast 201 231 4,900  Level Cleveland Center
09:13PM 40.9467 -82.4222 44° Northeast 203 234 4,900  Level Cleveland Center
09:14PM 40.9831 -82.3656 50° Northeast 201 231 5,000  Climbing Cleveland Center
09:15PM 41.0297 -82.3089 42° Northeast 203 234 4,900 -120 Descending Cleveland Center
09:16PM 41.0722 -82.2522 45° Northeast 221 254 4,800 -240 Descending Cleveland Center
09:17PM 41.0939 -82.1922 64° Northeast 229 264 4,500 -420 Descending Cleveland Center
09:18PM 41.1283 -82.1214 57° Northeast 225 259 4,100 -600 Descending Cleveland Center
09:18PM 41.1606 -82.0531 58° Northeast 233 268 3,400 -720 Descending Cleveland Center
09:19PM 41.1822 -81.9819 68° East 232 267 2,900 -300 Descending Cleveland Center
09:20PM 41.2083 -81.8969 68° East 209 241 2,900  Level Cleveland Center
09:22PM 41.2381 -81.8339 58° Northeast 208 239 3,000  Climbing Cleveland Center
09:22PM 41.2719 -81.7794 50° Northeast 208 239 2,900  Descending Cleveland Center
09:24PM 41.3144 -81.7139 49° Northeast 197 227 3,000 -240 Climbing Cleveland Center
09:25PM 41.3628 -81.6703 34° Northeast 210 242 2,500 -540 Descending Cleveland Center
09:26PM 41.4089 -81.6489 19° North 182 209 2,000 -540 Descending Cleveland Center
09:27PM 41.4589 -81.6444 North 169 194 1,500 -420 Descending Cleveland Center
09:29PM 41.5275 -81.6675 346° North 116 133 800 -420 Descending Cleveland Center